Delta, CO

1:20 PM MDT on September 01, 2014 (GMT -0600)
Delta | Change Station
CLOSE
Current Station
Airport
Location: Delta,
Elevation: 5194 ft
Nearby Weather Stations

Elev 5194 ft 38.79 °N, 108.07 °W | Updated 5 minutes ago

Haze
Haze
82 °F
Feels Like 82 °F
N
6
Wind Variable Wind from SSW

Today
High -- | Low -- °F
--% Chance of Precip.
Yesterday
High -- | Low -- °F
Precip. -- in
6:41 AM 7:42 PM
Waxing Crescent, 43% visible
Pressure 30.07 in
Visibility 5.0 miles
Clouds Clear
Dew Point 34 °F
Humidity 17%
Rainfall 0.00 in
Snow Depth Not available.
UV 10 out of 12
Pollen 9.60 out of 12
Air Quality Not available.
Flu Activity Not available.
METAR KAJZ 011915Z AUTO 20005KT 5SM HZ CLR 28/01 A3007 RMK AO2 T02790009

More Conditions Fewer Conditions

Pressure 30.07 in
Visibility 5.0 miles
Clouds Clear
Dew Point 34 °F
Humidity 17%
Rainfall 0.00 in
Snow Depth Not available.
UV 10 out of 12
Pollen 9.60 out of 12
Air Quality Not available.
Flu Activity Not available.
METAR KAJZ 011915Z AUTO 20005KT 5SM HZ CLR 28/01 A3007 RMK AO2 T02790009

More Conditions Fewer Conditions

10-Day Weather Forecast

Almanac

Astronomy

Sep. 01, 2014 Rise Set
Actual Time 6:41 AM MDT 7:42 PM MDT
Civil Twilight 6:14 AM MDT 8:09 PM MDT
Nautical Twilight 5:41 AM MDT 8:41 PM MDT
Astronomical Twilight 5:07 AM MDT 9:15 PM MDT
Moon 1:25 PM MDT 11:50 PM MDT
Length of Visible Light 13h 55m
Length of Day
13h 00m
Tomorrow will be 2m 26s shorter.
Waxing Crescent, 43% of the Moon is Illuminated
Today
Waxing Crescent
Sep 2
First Quarter
Sep 8
Full
Sep 15
Last Quarter
Sep 24
New

Today's Extremes

State Highs State Lows

Community

WunderPhotos

Upload Photos

1,749,378 photos uploaded!

WunderBlogs® & News

Nearby

Snow Depth

Station Depth Elevation
Park Reservoir 0 in 9960 ft
Overland Reservoir 0 in 9880 ft
McClure Pass 2 in 9500 ft
North Lost Trail 0 in 9200 ft
Lone Cone 8 in 9600 ft

Earthquake Activity

City Distance Mag. Time & Date
No recent earthquake activity has been reported nearby.
Minimum magnitude displayed is 2.5.

Coastal Water Temperatures

Place Temperature
No Stations Reporting

Nearby Weather Stations